Flight ASXD06X

  • Submitted By: Rafal Piotrowski
  • Departure Airport: Athens (LGAV)
  • Arrival Airport: Krakow im. Jana Pawla II (EPKK)
  • Aircraft: A320-214 (SP-GSA)
  • Flight Time: 2.23
  • Date Submitted: 11/11/2015
  • Route: NEVRA UG33 KOROS UN133 EVIVI N133 LOMOS UN133 NARKA DCT KEKED UN133 LENOV
  • Status: Accepted
Flight Details
Gross Revenue:
(145 load / € 260.00 per unit
€ 37,700.00
Fuel Cost:
(5623 fuel used @ 1.5 / unit)
€ 8,434.50

Additional Log Information:

View Log

[2015/11/11 14:33:00]
Flight IATA:ASXD06X
Pilot Number:ASX0102
Company ICAO:ASX
Aircraft Type:A320-214
PAX:145
Aircraft Registration:SP-GSA
Departing Airport: LGAV
Destination Airport: EPKK
Alternate Airport:EPRZ
Online: VATSIM
Route:NEVRA UG33 KOROS UN133 EVIVI N133 LOMOS UN133 NARKA DCT KEKED UN133 LENOV
Flight Level:36000
14:33 Zero fuel Weight: 56906 Kg, Fuel Weight: 8281 Kg
14:33 VATSIM:LGAV 111420Z 11004KT CAVOK 23/09 Q1021 NOSIG
14:33 VATSIM:EPKK 111400Z 25013KT 9999 FEW017 BKN036 14/12 Q1021
14:35 Parking Brakes off
14:35 Com1 Freq=122.80
14:39 VR= 160 Knots
14:39 V2= 162 Knots
14:39 Take-off
14:39 Take off Weight: 65041 Kg
14:39 Wind: 109? @ 004 Knots Heading: 037?
14:39 POS N37? 56? 14?? E023? 57? 23??
14:39 N11 94 N12 94
14:39 Flaps:2 at 163 Knots
14:39 Gear Up: 166 Knots
14:40 Flaps:0 at 191 Knots
14:54 Wind:323?@050 Knots Heading: 011? Ground Speed: 435 Knots Altitude 31945 ft
14:57 TOC
14:57 Fuel Weight: 6681 Kg
15:09 Wind:316?@059 Knots Heading: 331? Ground Speed: 393 Knots Altitude 36171 ft
15:24 Wind:316?@064 Knots Heading: 352? Ground Speed: 401 Knots Altitude 36217 ft
15:39 Wind:320?@059 Knots Heading: 350? Ground Speed: 401 Knots Altitude 36227 ft
15:54 Wind:315?@052 Knots Heading: 341? Ground Speed: 404 Knots Altitude 36250 ft
16:09 Wind:316?@050 Knots Heading: 341? Ground Speed: 409 Knots Altitude 36256 ft
16:24 Wind:316?@046 Knots Heading: 344? Ground Speed: 408 Knots Altitude 36256 ft
16:28 TOD
16:28 Fuel Weight: 3278 Kg
16:39 Wind:312?@039 Knots Heading: 310? Ground Speed: 257 Knots Altitude 14225 ft
16:45 Flaps:1 at 200 Knots
16:49 Com1 Freq=123.25
16:52 Flaps:3 at 188 Knots
16:52 Gear Down: 188 Knots
16:52 Flaps:4 at 180 Knots
16:52 Flaps:5 at 171 Knots
16:54 Wind:263?@013 Knots Heading: 258? Ground Speed: 125 Knots Altitude 1384 ft
16:54 TouchDown:Rate -123 ft/min Speed: 125 Knots
16:55 VATSIM:EPKK 111630Z 25009KT 9999 FEW015 BKN023 14/12 Q1021
16:55 Land
16:55 Wind:249?@009 Knots
16:55 Heading: 256?
16:55 Flight Duration: 02:16
16:55 Landing Weight: 59616 Kg
16:55 POS N50? 04? 40?? E019? 47? 12??
16:58 Parking brakes on
16:58 Block to Block Duration: 02:23
16:58 Final Fuel: 2658 Kg
16:58 Spent Fuel: 5623 Kg
16:58 Flight Length: 834 NM
16:58 TOD Land Length: 112 NM
17:01 Com1 Freq=122.80

Route Map